Union, Illinois
Current Conditions -  °F | °C
As of 10:15 AM on Thursday 27 Nov 2014 (Local Time) from KDKB Reporting Station
Overcast Overcast  
Wind Chill: 11°   Ceiling: 2000
Heat Index: 23°   Visibility: 10mi
Dew Point: 17°   Wind: 13mph
Humidity: 76%   Direction: 310°NW
Pressure: 30.35"   Gusts: 18mph
Location:  42.23°N, 88.54°W
Report Text: KDKB 271615Z AUTO 31011G16KT 10SM OVC020 M05/M09 A3035 RMK AO2 T10501086
Loading
Personal Weather Stations






























Interactive Weather Map New forecast layout! Learn more

10-Day Weather Forecast

Advertisements
Track Severe Weather on mobile